Time;durP1;ratioP1;P1;durP2;ratioP2;P2;SDS_P1;SDS_P2;PMS_P1;PMS_P2;Temp;Humidity;BMP_temperature;BMP_pressure;BME280_temperature;BME280_humidity;BME280_pressure;Samples;Min_cycle;Max_cycle;Signal;HPM_P1;HPM_P2
2022/04/14 00:00:27;;;;;;;48.55;27.23;;;;;;;13.27;94.03;101781.06;5044694;28;20539;-84
2022/04/14 00:02:53;;;;;;;48.15;26.25;;;;;;;13.30;93.85;101777.31;5026913;28;20040;-84
2022/04/14 00:05:18;;;;;;;47.97;25.50;;;;;;;13.30;93.51;101777.31;5043794;28;20044;-83
2022/04/14 00:07:44;;;;;;;43.42;25.42;;;;;;;13.29;93.23;101767.88;5026212;28;20036;-84
2022/04/14 00:10:13;;;;;;;43.60;24.23;;;;;;;13.28;93.11;101764.47;5027175;28;20383;-84
2022/04/14 00:12:39;;;;;;;45.13;24.02;;;;;;;13.25;93.22;101760.38;5061848;28;20036;-84
2022/04/14 00:15:05;;;;;;;49.05;24.10;;;;;;;13.22;93.53;101771.09;5060788;28;20025;-83
2022/04/14 00:17:34;;;;;;;41.08;23.45;;;;;;;13.19;94.04;101771.38;5041639;28;22004;-83
2022/04/14 00:20:06;;;;;;;42.80;24.85;;;;;;;13.18;94.03;101776.75;5060365;28;20801;-83
2022/04/14 00:22:31;;;;;;;46.83;25.55;;;;;;;13.18;94.03;101779.34;5063533;28;20513;-84
2022/04/14 00:24:57;;;;;;;49.78;26.25;;;;;;;13.15;94.44;101777.88;5045386;28;20037;-84
2022/04/14 00:27:22;;;;;;;48.38;26.08;;;;;;;13.15;94.52;101771.84;5060107;28;20038;-84
2022/04/14 00:29:48;;;;;;;52.10;28.55;;;;;;;13.15;94.61;101771.84;5025822;28;20477;-84
2022/04/14 00:32:13;;;;;;;51.00;27.70;;;;;;;13.14;94.51;101772.81;5049143;28;20047;-84
2022/04/14 00:34:39;;;;;;;49.63;26.95;;;;;;;13.13;94.48;101769.41;5046151;28;20032;-85
2022/04/14 00:37:05;;;;;;;58.10;30.90;;;;;;;13.16;94.70;101763.88;5029823;28;20029;-85
2022/04/14 00:39:30;;;;;;;53.70;30.27;;;;;;;13.09;94.82;101764.63;5049918;28;20535;-86
2022/04/14 00:41:55;;;;;;;53.83;29.73;;;;;;;13.00;95.70;101766.34;5044771;28;20044;-85
2022/04/14 00:44:21;;;;;;;59.08;31.67;;;;;;;12.96;96.43;101757.16;5063469;28;20028;-88
2022/04/14 00:46:46;;;;;;;64.90;35.15;;;;;;;12.97;96.35;101744.00;5023659;28;20551;-85
2022/04/14 00:49:12;;;;;;;65.63;32.17;;;;;;;12.88;96.85;101747.50;5045219;28;20044;-87
2022/04/14 00:51:38;;;;;;;65.65;32.25;;;;;;;12.88;97.25;101751.91;5048366;28;20091;-84
2022/04/14 00:54:03;;;;;;;65.60;33.28;;;;;;;12.91;97.17;101746.41;5030419;28;20337;-84
2022/04/14 00:56:28;;;;;;;71.10;38.03;;;;;;;12.91;97.10;101738.59;5042463;28;20087;-84
2022/04/14 00:58:54;;;;;;;66.90;36.08;;;;;;;12.85;97.64;101746.03;5059039;28;21743;-84
2022/04/14 01:01:20;;;;;;;58.60;32.90;;;;;;;12.86;97.75;101749.44;5026841;28;20029;-85
2022/04/14 01:03:46;;;;;;;67.18;33.75;;;;;;;12.89;97.74;101750.94;5060771;28;20056;-84
2022/04/14 01:06:15;;;;;;;57.83;32.50;;;;;;;12.89;97.68;101754.34;5059206;28;20071;-84
2022/04/14 01:08:42;;;;;;;58.08;31.60;;;;;;;12.89;97.59;101754.34;5045275;28;20482;-83
2022/04/14 01:11:07;;;;;;;55.17;31.33;;;;;;;12.91;97.14;101754.22;5043427;28;20544;-83
2022/04/14 01:13:33;;;;;;;55.30;30.00;;;;;;;12.94;96.82;101762.56;5030764;28;20040;-84
2022/04/14 01:15:59;;;;;;;60.30;32.33;;;;;;;12.94;96.43;101748.69;5041548;28;20082;-83
2022/04/14 01:18:26;;;;;;;60.38;31.75;;;;;;;12.94;96.19;101749.53;5045184;28;20035;-83
2022/04/14 01:20:53;;;;;;;60.50;30.83;;;;;;;12.96;96.09;101754.56;5059607;28;20047;-82
2022/04/14 01:23:45;;;;;;;57.28;32.95;;;;;;;12.93;95.94;101760.91;5042790;28;20062;-83
2022/04/14 01:26:11;;;;;;;52.92;28.63;;;;;;;12.87;96.40;101766.69;5025543;28;20044;-82
2022/04/14 01:28:37;;;;;;;56.17;30.08;;;;;;;12.84;96.66;101764.38;5059831;28;20185;-82
2022/04/14 01:31:03;;;;;;;59.85;31.77;;;;;;;12.83;97.01;101762.75;5043400;28;20051;-82
2022/04/14 01:33:29;;;;;;;59.13;30.73;;;;;;;12.80;97.04;101773.47;5041307;28;20491;-82
2022/04/14 01:35:54;;;;;;;59.28;31.13;;;;;;;12.77;97.18;101769.38;5041141;28;20064;-82
2022/04/14 01:38:20;;;;;;;55.58;31.27;;;;;;;12.76;97.28;101766.91;5042224;28;20055;-82
2022/04/14 01:40:45;;;;;;;59.72;31.25;;;;;;;12.72;97.62;101765.56;5044517;28;20106;-81
2022/04/14 01:43:11;;;;;;;61.17;32.22;;;;;;;12.70;97.84;101757.09;5040443;28;20025;-80
2022/04/14 01:45:37;;;;;;;61.83;32.53;;;;;;;12.70;97.91;101767.50;5044271;28;21153;-82
2022/04/14 01:48:02;;;;;;;61.17;32.35;;;;;;;12.69;98.02;101753.66;5045033;28;20048;-82
2022/04/14 01:50:28;;;;;;;61.38;33.30;;;;;;;12.70;98.05;101760.50;5029835;28;20029;-82
2022/04/14 01:52:53;;;;;;;64.63;34.20;;;;;;;12.68;97.95;101770.25;5058768;28;20032;-81
2022/04/14 01:55:19;;;;;;;59.22;32.58;;;;;;;12.65;98.25;101776.53;5040387;28;20312;-82
2022/04/14 01:57:45;;;;;;;59.20;32.75;;;;;;;12.61;98.64;101772.59;5027270;28;20040;-82
2022/04/14 02:00:13;;;;;;;59.20;32.15;;;;;;;12.61;98.90;101774.38;5025781;28;20041;-82
2022/04/14 02:02:39;;;;;;;66.97;34.08;;;;;;;12.56;99.18;101772.22;5025366;28;20054;-81
2022/04/14 02:05:05;;;;;;;63.85;33.22;;;;;;;12.54;99.43;101771.53;5062803;28;20032;-81
2022/04/14 02:07:30;;;;;;;67.82;33.88;;;;;;;12.56;99.67;101761.81;5025787;28;20132;-81
2022/04/14 02:09:56;;;;;;;58.00;32.00;;;;;;;12.58;99.64;101766.88;5043423;28;20047;-81
2022/04/14 02:12:21;;;;;;;61.13;32.25;;;;;;;12.58;99.07;101774.66;5024701;28;20481;-81
2022/04/14 02:14:47;;;;;;;65.63;35.13;;;;;;;12.58;98.70;101772.06;5040122;28;20528;-81
2022/04/14 02:17:12;;;;;;;72.40;35.83;;;;;;;12.54;98.85;101773.34;5060229;28;20059;-81
2022/04/14 02:19:38;;;;;;;64.75;33.28;;;;;;;12.51;98.95;101782.25;5021147;28;20075;-82
2022/04/14 02:22:04;;;;;;;68.75;35.10;;;;;;;12.50;99.18;101778.00;5039204;28;20528;-81
2022/04/14 02:24:29;;;;;;;60.00;32.97;;;;;;;12.47;99.35;101775.72;5019969;28;20032;-81
2022/04/14 02:26:55;;;;;;;65.50;32.55;;;;;;;12.44;99.57;101779.41;5025196;28;20043;-80
2022/04/14 02:29:21;;;;;;;63.83;33.85;;;;;;;12.43;99.64;101776.94;5057323;28;20048;-81
2022/04/14 02:31:46;;;;;;;65.35;34.28;;;;;;;12.43;99.65;101771.72;5038992;28;20032;-80
2022/04/14 02:34:12;;;;;;;68.50;34.35;;;;;;;12.43;99.52;101769.13;5022745;28;20033;-80
2022/04/14 02:36:37;;;;;;;68.22;34.58;;;;;;;12.42;99.44;101775.31;5039735;28;20397;-81
2022/04/14 02:39:03;;;;;;;63.72;33.55;;;;;;;12.42;99.40;101775.31;5027343;28;20062;-81
2022/04/14 02:41:29;;;;;;;59.60;31.90;;;;;;;12.42;99.15;101770.13;5053306;28;20052;-80
2022/04/14 02:43:54;;;;;;;62.95;32.50;;;;;;;12.42;99.06;101767.50;5040631;28;20600;-81
2022/04/14 02:46:20;;;;;;;57.60;31.83;;;;;;;12.40;98.52;101770.25;5043360;28;20040;-80
2022/04/14 02:48:45;;;;;;;61.60;32.38;;;;;;;12.38;98.60;101769.56;5041090;28;20032;-80
2022/04/14 02:51:11;;;;;;;63.22;32.80;;;;;;;12.36;98.77;101771.50;5042600;28;20739;-81
2022/04/14 02:53:37;;;;;;;58.78;33.47;;;;;;;12.37;98.75;101765.31;5045082;28;20032;-80
2022/04/14 02:56:04;;;;;;;56.67;31.08;;;;;;;12.34;98.66;101759.59;5040497;28;20564;-80
2022/04/14 02:58:29;;;;;;;57.03;32.50;;;;;;;12.33;98.70;101756.19;5039311;28;20104;-80
2022/04/14 03:00:55;;;;;;;66.30;33.08;;;;;;;12.32;98.64;101762.34;5041358;28;20683;-80
2022/04/14 03:03:23;;;;;;;63.63;33.78;;;;;;;12.29;99.02;101765.22;5043002;28;20036;-80
2022/04/14 03:05:49;;;;;;;61.55;33.00;;;;;;;12.26;99.24;101763.75;5023840;28;20032;-80
2022/04/14 03:08:15;;;;;;;57.55;31.40;;;;;;;12.26;99.17;101765.50;5022981;28;20559;-80
2022/04/14 03:10:40;;;;;;;59.58;31.40;;;;;;;12.23;99.19;101745.00;5040054;28;20045;-81
2022/04/14 03:13:06;;;;;;;60.35;32.25;;;;;;;12.22;99.06;101732.97;5041722;28;20044;-80
2022/04/14 03:15:31;;;;;;;62.83;33.08;;;;;;;12.19;99.17;101741.88;5041442;28;20396;-80
2022/04/14 03:17:57;;;;;;;61.95;32.70;;;;;;;12.16;99.30;101749.16;5039124;28;20078;-80
2022/04/14 03:20:22;;;;;;;62.03;32.20;;;;;;;12.17;99.04;101756.00;5023227;28;20521;-80
2022/04/14 03:22:48;;;;;;;63.22;33.97;;;;;;;12.16;99.06;101752.56;5040202;28;20111;-80
2022/04/14 03:25:14;;;;;;;65.88;33.95;;;;;;;12.11;99.10;101753.94;5039086;28;20032;-80
2022/04/14 03:27:40;;;;;;;60.00;30.20;;;;;;;12.06;99.15;101751.78;5026901;28;20032;-80
2022/04/14 03:30:08;;;;;;;58.13;33.47;;;;;;;12.04;99.49;101751.94;5025460;28;20028;-80
2022/04/14 03:32:42;;;;;;;63.08;33.50;;;;;;;12.03;99.45;101760.66;5040085;28;20040;-79
2022/04/14 03:35:08;;;;;;;64.43;32.60;;;;;;;12.00;99.46;101768.78;5044640;28;20480;-80
2022/04/14 03:37:34;;;;;;;60.35;33.38;;;;;;;11.97;99.74;101760.44;5040403;28;20048;-80
2022/04/14 03:39:59;;;;;;;64.63;33.15;;;;;;;11.96;99.37;101763.97;5040715;28;20098;-80
2022/04/14 03:42:26;;;;;;;65.13;32.25;;;;;;;11.94;99.46;101761.56;5042354;28;20338;-80
2022/04/14 03:44:52;;;;;;;58.17;33.00;;;;;;;11.94;99.81;101768.50;5042657;28;20028;-79
2022/04/14 03:47:17;;;;;;;67.43;34.28;;;;;;;11.93;99.49;101774.69;5025319;28;20090;-80
2022/04/14 03:49:43;;;;;;;58.80;32.65;;;;;;;11.89;99.66;101771.50;5044197;28;20404;-79
2022/04/14 03:52:08;;;;;;;66.60;32.72;;;;;;;11.87;99.88;101778.63;5042939;28;20032;-79
2022/04/14 03:54:33;;;;;;;62.22;32.55;;;;;;;11.87;100.00;101778.63;5043404;28;20622;-80
2022/04/14 03:56:59;;;;;;;65.57;32.78;;;;;;;11.87;100.00;101774.25;5042758;28;20277;-80
2022/04/14 03:59:24;;;;;;;69.75;35.42;;;;;;;11.85;100.00;101772.75;5029479;28;20036;-80
2022/04/14 04:01:50;;;;;;;74.15;35.67;;;;;;;11.85;100.00;101773.56;5056796;28;20033;-80
2022/04/14 04:04:15;;;;;;;62.67;32.05;;;;;;;11.86;100.00;101774.38;5029305;28;20041;-79
2022/04/14 04:06:41;;;;;;;72.93;34.75;;;;;;;11.86;100.00;101785.59;5028129;28;20024;-80
2022/04/14 04:09:06;;;;;;;75.35;34.58;;;;;;;11.86;100.00;101779.56;5041667;28;20040;-80
2022/04/14 04:11:32;;;;;;;77.18;37.33;;;;;;;11.85;100.00;101793.53;5042694;28;20047;-79
2022/04/14 04:13:57;;;;;;;78.60;36.85;;;;;;;11.84;100.00;101799.69;5043071;28;20017;-79
2022/04/14 04:16:23;;;;;;;84.60;38.15;;;;;;;11.82;100.00;101805.03;5030015;28;20481;-80
2022/04/14 04:18:48;;;;;;;83.95;37.75;;;;;;;11.80;100.00;101793.13;5040653;28;20028;-80
2022/04/14 04:21:14;;;;;;;88.07;39.13;;;;;;;11.76;100.00;101790.00;5026324;28;20028;-80
2022/04/14 04:23:39;;;;;;;87.32;36.65;;;;;;;11.76;100.00;101804.78;5040667;28;20041;-80
2022/04/14 04:26:04;;;;;;;87.95;38.35;;;;;;;11.77;100.00;101803.78;5057236;28;20028;-80
2022/04/14 04:28:30;;;;;;;83.20;37.30;;;;;;;11.79;100.00;101809.66;5025161;28;20037;-80
2022/04/14 04:30:56;;;;;;;88.43;39.35;;;;;;;11.78;100.00;101816.66;5061312;28;20052;-80
2022/04/14 04:33:22;;;;;;;89.15;40.35;;;;;;;11.74;100.00;101812.69;5046773;28;20028;-79
2022/04/14 04:35:50;;;;;;;87.10;40.65;;;;;;;11.73;100.00;101805.03;5047612;28;20401;-80
2022/04/14 04:38:15;;;;;;;84.55;37.90;;;;;;;11.69;100.00;101794.09;5047011;28;20050;-80
2022/04/14 04:40:40;;;;;;;74.60;35.97;;;;;;;11.68;100.00;101798.50;5045618;28;20713;-80
2022/04/14 04:43:06;;;;;;;79.68;37.70;;;;;;;11.67;100.00;101806.41;5026271;28;20029;-80
2022/04/14 04:45:32;;;;;;;80.75;37.20;;;;;;;11.66;100.00;101805.59;5042072;28;20532;-79
2022/04/14 04:47:57;;;;;;;77.07;34.85;;;;;;;11.67;100.00;101812.41;5062293;28;20040;-80
2022/04/14 04:50:23;;;;;;;76.88;35.75;;;;;;;11.67;100.00;101811.59;5028569;28;20521;-80
2022/04/14 04:52:48;;;;;;;80.57;37.35;;;;;;;11.68;100.00;101816.66;5044378;28;20040;-80
2022/04/14 04:55:13;;;;;;;78.35;35.50;;;;;;;11.66;100.00;101817.78;5044439;28;20029;-80
2022/04/14 04:57:39;;;;;;;71.15;34.97;;;;;;;11.64;100.00;101817.91;5041491;28;20473;-80
2022/04/14 05:00:05;;;;;;;77.72;36.17;;;;;;;11.64;100.00;101817.06;5029177;28;20051;-80
2022/04/14 05:02:30;;;;;;;71.00;33.53;;;;;;;11.64;100.00;101811.88;5025309;28;20033;-80
2022/04/14 05:04:56;;;;;;;73.22;34.13;;;;;;;11.64;100.00;101819.66;5027610;28;20033;-80
2022/04/14 05:07:21;;;;;;;69.13;33.85;;;;;;;11.63;100.00;101821.44;5044940;28;20477;-80
2022/04/14 05:09:47;;;;;;;66.68;31.73;;;;;;;11.63;100.00;101821.44;5060339;28;20033;-80
2022/04/14 05:12:12;;;;;;;65.55;31.67;;;;;;;11.64;100.00;101817.91;5058207;28;20086;-80
2022/04/14 05:14:38;;;;;;;62.00;31.42;;;;;;;11.65;99.84;101818.72;5046631;28;20485;-79
2022/04/14 05:17:04;;;;;;;65.07;30.60;;;;;;;11.62;99.46;101822.44;5025303;28;20086;-80
2022/04/14 05:19:29;;;;;;;68.25;32.15;;;;;;;11.61;99.29;101823.38;5027531;28;20029;-80
2022/04/14 05:21:54;;;;;;;62.60;31.15;;;;;;;11.61;99.28;101827.75;5059916;28;20024;-80
2022/04/14 05:24:21;;;;;;;66.63;31.23;;;;;;;11.59;99.12;101827.88;5041553;28;20016;-80
2022/04/14 05:26:46;;;;;;;60.42;30.75;;;;;;;11.57;99.05;101831.59;5043815;28;20039;-80
2022/04/14 05:29:12;;;;;;;59.17;30.35;;;;;;;11.56;98.88;101828.16;5059430;28;20567;-80
2022/04/14 05:31:37;;;;;;;61.20;28.27;;;;;;;11.57;99.00;101835.00;5028865;28;20232;-80
2022/04/14 05:34:03;;;;;;;61.20;27.77;;;;;;;11.56;98.86;101846.34;5037649;28;20098;-80
2022/04/14 05:36:28;;;;;;;57.58;29.58;;;;;;;11.56;98.73;101837.72;5040228;28;20106;-79
2022/04/14 05:38:54;;;;;;;56.30;27.83;;;;;;;11.57;98.28;101841.97;5038626;28;20101;-79
2022/04/14 05:41:19;;;;;;;54.13;27.25;;;;;;;11.55;98.40;101836.09;5042569;28;20033;-80
2022/04/14 05:43:45;;;;;;;52.40;27.05;;;;;;;11.55;98.49;101836.91;5028741;28;20033;-79
2022/04/14 05:46:10;;;;;;;54.00;27.85;;;;;;;11.53;98.48;101833.63;5058293;28;20181;-80
2022/04/14 05:48:36;;;;;;;56.88;28.42;;;;;;;11.53;98.81;101841.44;5059742;28;20408;-79
2022/04/14 05:51:01;;;;;;;50.95;26.92;;;;;;;11.54;98.66;101847.44;5024423;28;20032;-79
2022/04/14 05:53:28;;;;;;;54.20;26.65;;;;;;;11.55;98.78;101849.09;5047841;28;20043;-79
2022/04/14 05:55:53;;;;;;;58.03;29.27;;;;;;;11.57;98.55;101862.75;5043735;28;20028;-80
2022/04/14 05:58:19;;;;;;;53.47;26.85;;;;;;;11.57;98.56;101849.78;5024975;28;21055;-80
2022/04/14 06:00:44;;;;;;;51.95;25.90;;;;;;;11.57;98.65;101849.78;5044697;28;20074;-79
2022/04/14 06:03:10;;;;;;;48.67;25.17;;;;;;;11.58;98.73;101848.81;5042954;28;20032;-79
2022/04/14 06:05:36;;;;;;;47.80;24.27;;;;;;;11.59;98.76;101853.06;5025145;28;20032;-80
2022/04/14 06:08:02;;;;;;;52.03;24.52;;;;;;;11.59;98.60;101848.66;5038797;28;20390;-79
2022/04/14 06:10:28;;;;;;;45.60;23.27;;;;;;;11.61;98.43;101851.94;5042915;28;20054;-80
2022/04/14 06:12:55;;;;;;;42.28;22.80;;;;;;;11.62;98.18;101850.16;5040853;28;20056;-79
2022/04/14 06:15:21;;;;;;;47.55;23.92;;;;;;;11.63;98.48;101851.81;5036055;28;20043;-79
2022/04/14 06:17:47;;;;;;;47.22;23.58;;;;;;;11.65;98.51;101853.31;5038406;28;20029;-79
2022/04/14 06:20:13;;;;;;;44.42;23.70;;;;;;;11.68;98.30;101852.22;5059517;28;20509;-79
2022/04/14 06:22:43;;;;;;;43.90;25.08;;;;;;;11.71;98.10;101853.72;5038266;28;20029;-80
2022/04/14 06:25:13;;;;;;;38.95;21.58;;;;;;;11.75;98.13;101847.28;5053888;28;20032;-80
2022/04/14 06:27:43;;;;;;;37.90;20.85;;;;;;;11.77;98.53;101854.00;5036117;28;20059;-80
2022/04/14 06:30:10;;;;;;;40.80;21.02;;;;;;;11.80;98.40;101853.72;5025798;28;20032;-79
2022/04/14 06:32:39;;;;;;;36.00;18.63;;;;;;;11.82;98.72;101857.00;5025110;28;20031;-80
2022/04/14 06:35:06;;;;;;;37.95;20.40;;;;;;;11.85;98.30;101855.91;5022022;28;20489;-79
2022/04/14 06:37:35;;;;;;;34.78;19.27;;;;;;;11.88;98.48;101859.06;5030916;28;20127;-80
2022/04/14 06:40:02;;;;;;;33.13;18.25;;;;;;;11.92;98.02;101864.00;5041383;28;20035;-79
2022/04/14 06:42:27;;;;;;;28.63;16.15;;;;;;;11.96;98.00;101861.00;5042488;28;20048;-80
2022/04/14 06:45:00;;;;;;;32.85;16.65;;;;;;;12.03;97.50;101858.63;5040705;28;20043;-80
2022/04/14 06:47:26;;;;;;;32.58;17.38;;;;;;;12.10;97.19;101869.31;5042294;28;20086;-79
2022/04/14 06:49:53;;;;;;;33.25;17.35;;;;;;;12.17;96.94;101866.00;5055758;28;20036;-80
2022/04/14 06:52:18;;;;;;;32.83;18.55;;;;;;;12.30;96.64;101862.28;5027286;28;20036;-80
2022/04/14 06:54:44;;;;;;;30.83;17.10;;;;;;;12.44;95.79;101873.03;5042530;28;20043;-80
2022/04/14 06:57:09;;;;;;;31.42;16.73;;;;;;;12.68;95.21;101874.34;5044947;28;20119;-80
2022/04/14 06:59:35;;;;;;;28.55;16.10;;;;;;;12.93;94.27;101869.41;5026280;28;20108;-79
2022/04/14 07:02:01;;;;;;;28.27;15.48;;;;;;;13.37;92.82;101877.38;5020886;28;20440;-80
2022/04/14 07:04:27;;;;;;;31.77;17.75;;;;;;;14.07;90.51;101871.44;5042946;28;20527;-80
2022/04/14 07:06:53;;;;;;;27.30;16.00;;;;;;;14.77;86.60;101868.75;5042013;28;20040;-80
2022/04/14 07:09:18;;;;;;;23.52;14.25;;;;;;;15.31;84.92;101868.38;5022987;28;20553;-80
2022/04/14 07:11:44;;;;;;;26.30;14.70;;;;;;;15.80;80.44;101871.06;5040600;28;20040;-81
2022/04/14 07:14:10;;;;;;;26.13;14.15;;;;;;;16.07;78.50;101874.31;5044813;28;20086;-78
2022/04/14 07:16:35;;;;;;;20.77;12.98;;;;;;;16.46;76.72;101878.78;5057327;28;20090;-81
2022/04/14 07:19:00;;;;;;;20.10;12.55;;;;;;;16.73;76.27;101877.53;5043508;28;20366;-80
2022/04/14 07:21:26;;;;;;;20.83;13.20;;;;;;;17.02;74.87;101876.13;5044401;28;20066;-81
2022/04/14 07:23:52;;;;;;;21.55;12.80;;;;;;;17.05;73.96;101876.59;5044601;28;20020;-81
2022/04/14 07:26:17;;;;;;;19.27;11.82;;;;;;;17.39;73.26;101871.97;5027268;28;20036;-81
2022/04/14 07:28:43;;;;;;;18.17;11.20;;;;;;;17.57;71.29;101872.47;5044549;28;20098;-80
2022/04/14 07:31:08;;;;;;;17.52;10.77;;;;;;;17.83;69.47;101866.81;5026764;28;20039;-80
2022/04/14 07:33:34;;;;;;;16.05;8.43;;;;;;;17.69;68.79;101863.19;5061761;28;20074;-80
2022/04/14 07:36:00;;;;;;;15.73;8.25;;;;;;;17.86;67.93;101868.34;5027008;28;20035;-79
2022/04/14 07:38:25;;;;;;;16.33;8.52;;;;;;;18.06;67.87;101858.94;5044752;28;20769;-79
2022/04/14 07:40:51;;;;;;;13.20;7.82;;;;;;;17.75;67.89;101872.16;5041673;28;20075;-79
2022/04/14 07:43:16;;;;;;;14.13;8.35;;;;;;;17.90;67.66;101865.16;5046962;28;20036;-79
2022/04/14 07:45:45;;;;;;;16.63;8.70;;;;;;;18.08;68.44;101867.47;5044914;28;20043;-79
2022/04/14 07:48:11;;;;;;;17.17;8.60;;;;;;;18.27;66.25;101871.34;5025826;28;20513;-80
2022/04/14 07:50:37;;;;;;;21.88;10.98;;;;;;;18.17;66.45;101875.22;5044725;28;20052;-80
2022/04/14 07:53:03;;;;;;;19.40;11.45;;;;;;;18.18;67.68;101874.25;5041212;28;20079;-79
2022/04/14 07:55:31;;;;;;;21.75;12.55;;;;;;;18.45;65.85;101878.84;5044831;28;20522;-79
2022/04/14 07:58:01;;;;;;;26.15;13.23;;;;;;;18.65;65.50;101875.69;5043909;28;20036;-79
2022/04/14 08:00:27;;;;;;;21.95;12.88;;;;;;;18.75;66.54;101870.94;5045573;28;20040;-79
2022/04/14 08:02:54;;;;;;;26.88;14.13;;;;;;;18.79;66.88;101869.56;5025607;28;20749;-79
2022/04/14 08:05:27;;;;;;;28.60;15.13;;;;;;;18.41;66.99;101868.91;5059609;28;20033;-79
2022/04/14 08:07:52;;;;;;;30.70;16.25;;;;;;;18.19;68.43;101878.50;5056000;28;21317;-79
2022/04/14 08:10:18;;;;;;;34.20;17.83;;;;;;;17.62;69.28;101878.00;5042357;28;20792;-78
2022/04/14 08:12:44;;;;;;;29.73;16.55;;;;;;;17.26;71.76;101883.84;5027173;28;20059;-79
2022/04/14 08:15:12;;;;;;;36.35;19.40;;;;;;;16.88;73.93;101881.09;5048666;28;20093;-80
2022/04/14 08:17:39;;;;;;;42.28;22.35;;;;;;;16.55;75.76;101883.00;5026999;28;20029;-79
2022/04/14 08:20:05;;;;;;;48.67;23.80;;;;;;;16.54;75.42;101879.59;5045653;28;20035;-80
2022/04/14 08:22:52;;;;;;;41.67;22.58;;;;;;;16.63;75.21;101879.53;5024124;28;20394;-79
2022/04/14 08:25:24;;;;;;;44.72;23.38;;;;;;;17.44;73.92;101875.69;5042768;28;20700;-80
2022/04/14 08:27:50;;;;;;;45.78;25.00;;;;;;;18.33;70.94;101866.34;5044083;28;20529;-79
2022/04/14 08:30:18;;;;;;;54.17;27.23;;;;;;;18.77;68.58;101866.31;5043370;28;20109;-80
2022/04/14 08:32:44;;;;;;;50.88;27.10;;;;;;;19.24;66.32;101872.09;5042714;28;20123;-79
2022/04/14 08:35:12;;;;;;;48.60;27.30;;;;;;;19.50;65.48;101876.78;5043173;28;20124;-80
2022/04/14 08:37:38;;;;;;;43.08;25.10;;;;;;;20.10;65.25;101876.44;5030487;28;20039;-80
2022/04/14 08:40:05;;;;;;;52.90;27.70;;;;;;;20.43;63.65;101876.63;5054362;28;20043;-80
2022/04/14 08:42:39;;;;;;;55.45;28.88;;;;;;;20.19;62.30;101878.75;5051779;28;20037;-80
2022/04/14 08:45:10;;;;;;;56.15;29.92;;;;;;;20.28;63.72;101875.94;5066934;28;20328;-81
2022/04/14 08:47:37;;;;;;;55.88;30.08;;;;;;;20.30;62.72;101880.00;5064075;28;20119;-81
2022/04/14 08:50:05;;;;;;;55.83;29.77;;;;;;;20.42;60.74;101875.03;5033194;28;20071;-80
2022/04/14 08:52:34;;;;;;;58.75;31.40;;;;;;;20.82;62.65;101871.75;5048718;28;20028;-80
2022/04/14 08:55:02;;;;;;;52.75;32.30;;;;;;;21.10;60.49;101866.34;5032449;28;20424;-79
2022/04/14 08:57:30;;;;;;;62.75;35.55;;;;;;;21.02;60.09;101867.34;5035154;28;20445;-80
2022/04/14 08:59:57;;;;;;;65.40;36.78;;;;;;;20.08;62.36;101873.19;5034723;28;20032;-79
2022/04/14 09:02:23;;;;;;;62.35;37.80;;;;;;;20.10;63.78;101872.00;5041022;28;20032;-80
2022/04/14 09:04:51;;;;;;;56.65;34.05;;;;;;;19.29;64.86;101872.38;5047884;28;20033;-79
2022/04/14 09:07:17;;;;;;;56.80;31.75;;;;;;;18.65;66.84;101881.75;5047020;28;20033;-80
2022/04/14 09:09:43;;;;;;;62.63;34.90;;;;;;;18.11;67.71;101873.34;5048800;28;20089;-78
2022/04/14 09:12:10;;;;;;;66.13;35.78;;;;;;;18.87;67.77;101871.31;5036189;28;20036;-80
2022/04/14 09:14:37;;;;;;;60.65;36.67;;;;;;;19.45;63.77;101866.81;5048421;28;20116;-80
2022/04/14 09:17:06;;;;;;;64.28;37.35;;;;;;;19.39;63.92;101869.41;5050033;28;20029;-80
2022/04/14 09:19:37;;;;;;;61.30;35.22;;;;;;;18.97;64.48;101861.31;5054685;28;20051;-79
2022/04/14 09:22:11;;;;;;;60.83;36.03;;;;;;;18.52;67.01;101862.38;5033633;28;20279;-80
2022/04/14 09:24:39;;;;;;;62.42;33.70;;;;;;;18.25;68.21;101867.25;5052037;28;20029;-79
2022/04/14 09:27:05;;;;;;;56.00;31.98;;;;;;;18.56;67.72;101868.91;5048225;28;20043;-79
2022/04/14 09:29:31;;;;;;;51.63;30.52;;;;;;;18.97;64.84;101865.78;5053286;28;20016;-79
2022/04/14 09:31:56;;;;;;;57.28;31.58;;;;;;;19.32;64.79;101858.00;5050849;28;20385;-80
2022/04/14 09:34:51;;;;;;;50.70;29.58;;;;;;;18.91;64.41;101859.44;5064309;28;20047;-81
2022/04/14 09:37:17;;;;;;;52.17;30.42;;;;;;;19.00;66.32;101858.31;5048006;28;20063;-80
2022/04/14 09:40:05;;;;;;;50.60;29.73;;;;;;;19.36;63.88;101860.06;5047289;28;20396;-81
2022/04/14 09:42:43;;;;;;;50.00;29.70;;;;;;;19.73;63.59;101854.75;5049881;28;20079;-80
2022/04/14 09:45:29;;;;;;;45.20;26.85;;;;;;;20.17;61.62;101851.81;5029831;28;20056;-80
2022/04/14 09:48:10;;;;;;;49.55;29.95;;;;;;;20.41;58.90;101853.13;5046186;28;20031;-80
2022/04/14 09:50:43;;;;;;;51.00;29.55;;;;;;;20.54;60.17;101857.63;5062755;28;20393;-80
2022/04/14 09:53:14;;;;;;;43.22;27.60;;;;;;;20.74;61.44;101851.66;5032452;28;20483;-80
2022/04/14 09:55:57;;;;;;;46.15;27.38;;;;;;;20.56;59.24;101852.19;5044908;28;20047;-79
2022/04/14 09:58:24;;;;;;;43.05;26.83;;;;;;;20.10;58.41;101845.69;5046908;28;20159;-81
2022/04/14 10:00:58;;;;;;;44.88;26.30;;;;;;;19.83;60.49;101856.03;5048994;28;20040;-80
2022/04/14 10:03:26;;;;;;;46.90;27.10;;;;;;;19.91;59.37;101852.44;5026113;28;20052;-79
2022/04/14 10:05:54;;;;;;;38.03;24.55;;;;;;;19.98;60.44;101850.66;5045988;28;20036;-81
2022/04/14 10:08:19;;;;;;;41.33;25.20;;;;;;;19.65;59.50;101839.88;5027618;28;20430;-79
2022/04/14 10:10:47;;;;;;;39.58;25.05;;;;;;;19.88;59.84;101836.22;5060370;28;20057;-80
2022/04/14 10:13:18;;;;;;;36.25;23.25;;;;;;;19.72;61.52;101834.66;5046035;28;20032;-80
2022/04/14 10:15:52;;;;;;;32.20;19.63;;;;;;;20.20;57.66;101838.22;5062763;28;20118;-79
2022/04/14 10:18:18;;;;;;;31.98;17.52;;;;;;;20.42;57.42;101830.25;5034158;28;20043;-79
2022/04/14 10:20:45;;;;;;;34.97;18.83;;;;;;;20.59;57.85;101833.34;5047127;28;20032;-81
2022/04/14 10:23:12;;;;;;;34.67;18.23;;;;;;;20.61;57.76;101832.16;5059697;28;20036;-80
2022/04/14 10:25:38;;;;;;;26.63;17.42;;;;;;;20.77;56.80;101830.97;5048975;28;20074;-80
2022/04/14 10:28:15;;;;;;;29.73;18.02;;;;;;;20.68;54.08;101829.56;5048381;28;20040;-79
2022/04/14 10:30:45;;;;;;;26.45;18.88;;;;;;;20.17;56.03;101836.00;5057068;28;20505;-80
2022/04/14 10:33:12;;;;;;;32.17;19.60;;;;;;;19.80;56.22;101835.38;5052006;28;20061;-81
2022/04/14 10:35:37;;;;;;;28.02;18.38;;;;;;;19.64;57.01;101833.78;5051451;28;20516;-80
2022/04/14 10:38:24;;;;;;;31.67;18.77;;;;;;;19.15;58.37;101826.72;5048039;28;20036;-80
2022/04/14 10:40:54;;;;;;;28.83;18.05;;;;;;;19.09;58.64;101827.47;5028856;28;20268;-81
2022/04/14 10:43:23;;;;;;;28.50;19.00;;;;;;;19.72;58.28;101817.09;5048234;28;20080;-81
2022/04/14 10:45:51;;;;;;;30.38;19.73;;;;;;;19.82;60.74;101808.88;5047543;28;20025;-82
2022/04/14 10:48:31;;;;;;;31.20;18.05;;;;;;;20.22;55.94;101803.81;5049347;28;20059;-81
2022/04/14 10:51:13;;;;;;;28.88;19.58;;;;;;;20.56;54.52;101795.03;5046312;28;20064;-81
2022/04/14 10:54:09;;;;;;;32.60;19.92;;;;;;;20.63;55.61;101799.53;5059233;28;20033;-81
2022/04/14 10:56:34;;;;;;;30.20;18.55;;;;;;;20.72;55.83;101793.88;5048757;28;20048;-80
2022/04/14 10:59:11;;;;;;;29.42;19.70;;;;;;;20.76;54.73;101789.03;5046494;28;20081;-79
2022/04/14 11:04:28;;;;;;;25.55;17.88;;;;;;;20.38;53.12;101805.28;5046819;28;20071;-80
2022/04/14 11:07:01;;;;;;;28.30;17.27;;;;;;;20.01;53.68;101810.78;5026787;28;20378;-80
2022/04/14 11:09:42;;;;;;;;;;;;;;;19.96;54.58;101812.38;5048322;28;20040;-81
2022/04/14 11:12:12;;;;;;;29.88;17.08;;;;;;;20.26;55.62;101817.41;5041978;28;20373;-80